Time;durP1;ratioP1;P1;durP2;ratioP2;P2;SDS_P1;SDS_P2;PMS_P1;PMS_P2;Temp;Humidity;BMP_temperature;BMP_pressure;BME280_temperature;BME280_humidity;BME280_pressure;Samples;Min_cycle;Max_cycle;Signal;HPM_P1;HPM_P2
2021/07/29 00:01:37;;;;;;;6.90;4.47;;;15.80;99.90;;;;;;4996037;28;20183;-74
2021/07/29 00:04:03;;;;;;;7.23;4.80;;;15.70;99.90;;;;;;4995733;28;20192;-74
2021/07/29 00:06:28;;;;;;;9.03;5.57;;;15.90;99.90;;;;;;4995897;28;20602;-75
2021/07/29 00:08:54;;;;;;;6.20;5.20;;;15.80;99.90;;;;;;4995481;28;20595;-74
2021/07/29 00:11:20;;;;;;;9.90;5.17;;;15.80;99.90;;;;;;5011841;28;20555;-75
2021/07/29 00:13:45;;;;;;;7.20;5.43;;;15.80;99.90;;;;;;5011762;28;20242;-74
2021/07/29 00:16:11;;;;;;;6.53;5.53;;;15.90;99.90;;;;;;4995676;28;20168;-75
2021/07/29 00:21:20;;;;;;;7.37;5.70;;;16.10;99.90;;;;;;4998163;28;20217;-74
2021/07/29 00:23:52;;;;;;;7.10;5.30;;;15.80;99.90;;;;;;5011712;28;20223;-74
2021/07/29 00:26:17;;;;;;;6.97;5.03;;;16.00;99.90;;;;;;4995901;28;20180;-74
2021/07/29 00:28:43;;;;;;;5.50;4.87;;;16.00;99.90;;;;;;4995123;28;20203;-74
2021/07/29 00:31:08;;;;;;;7.43;5.67;;;16.10;99.90;;;;;;5012648;28;20659;-74
2021/07/29 00:33:34;;;;;;;6.93;5.70;;;15.50;99.90;;;;;;4995046;28;20550;-74
2021/07/29 00:35:59;;;;;;;7.47;5.07;;;15.90;99.90;;;;;;4979286;28;20639;-74
2021/07/29 00:38:25;;;;;;;7.60;5.07;;;15.80;99.90;;;;;;5011617;28;20725;-75
2021/07/29 00:40:50;;;;;;;7.47;5.07;;;15.80;99.90;;;;;;5011313;28;20571;-75
2021/07/29 00:43:16;;;;;;;7.63;5.17;;;16.00;99.90;;;;;;4995161;28;20195;-74
2021/07/29 00:45:43;;;;;;;6.90;5.17;;;16.00;99.90;;;;;;5011547;28;20175;-74
2021/07/29 00:48:10;;;;;;;5.57;5.00;;;15.80;99.90;;;;;;4995174;28;20203;-74
2021/07/29 00:50:36;;;;;;;7.37;5.13;;;15.80;99.90;;;;;;4995360;28;20682;-74
2021/07/29 00:53:03;;;;;;;7.13;4.80;;;15.90;99.90;;;;;;4996571;28;20254;-75
2021/07/29 00:55:28;;;;;;;5.63;5.00;;;15.80;99.90;;;;;;4996032;28;20187;-75
2021/07/29 00:57:54;;;;;;;8.73;4.97;;;15.90;99.90;;;;;;4995373;28;20180;-75
2021/07/29 01:00:19;;;;;;;5.97;4.90;;;16.00;99.90;;;;;;5012537;28;20186;-74
2021/07/29 01:02:45;;;;;;;5.07;4.27;;;15.90;99.90;;;;;;4995071;28;20226;-74
2021/07/29 01:05:11;;;;;;;7.10;4.23;;;16.10;99.90;;;;;;4978705;28;20549;-75
2021/07/29 01:07:36;;;;;;;5.87;4.20;;;15.90;99.90;;;;;;4994886;28;20583;-74
2021/07/29 01:10:02;;;;;;;4.53;3.53;;;15.80;99.90;;;;;;4994687;28;20186;-74
2021/07/29 01:12:28;;;;;;;6.40;4.60;;;15.80;99.90;;;;;;4978576;28;20180;-75
2021/07/29 01:14:54;;;;;;;7.70;3.97;;;15.90;99.90;;;;;;4995028;28;20182;-75
2021/07/29 01:17:19;;;;;;;9.03;4.17;;;15.80;99.90;;;;;;5011252;28;20180;-74
2021/07/29 01:19:45;;;;;;;7.67;4.37;;;15.80;99.90;;;;;;4994674;28;20218;-75
2021/07/29 01:22:10;;;;;;;7.00;4.33;;;15.80;99.90;;;;;;4978623;28;20188;-74
2021/07/29 01:24:36;;;;;;;4.53;3.93;;;15.80;99.90;;;;;;5011012;28;20262;-75
2021/07/29 01:27:01;;;;;;;4.70;3.83;;;15.80;99.90;;;;;;5011124;28;20206;-75
2021/07/29 01:29:27;;;;;;;9.50;4.00;;;15.80;99.90;;;;;;5010984;28;20172;-75
2021/07/29 01:31:52;;;;;;;5.57;3.80;;;15.80;99.90;;;;;;5011265;28;20176;-75
2021/07/29 01:34:18;;;;;;;5.20;3.63;;;15.80;99.90;;;;;;4994483;28;20195;-75
2021/07/29 01:36:45;;;;;;;5.47;4.07;;;15.90;99.90;;;;;;5011057;28;20183;-75
2021/07/29 01:39:10;;;;;;;6.93;3.67;;;15.80;99.90;;;;;;4994506;28;20183;-74
2021/07/29 01:41:36;;;;;;;6.50;3.83;;;15.80;99.90;;;;;;4994662;28;20545;-75
2021/07/29 01:44:01;;;;;;;4.47;3.40;;;15.80;99.90;;;;;;5012454;28;20319;-74
2021/07/29 01:46:27;;;;;;;6.33;3.83;;;15.90;99.90;;;;;;5015480;28;20232;-75
2021/07/29 01:48:52;;;;;;;4.60;3.43;;;15.90;99.90;;;;;;4998261;28;20204;-74
2021/07/29 01:51:18;;;;;;;6.63;3.50;;;15.90;99.90;;;;;;5014631;28;20652;-74
2021/07/29 01:53:43;;;;;;;4.67;3.10;;;15.80;99.90;;;;;;5014492;28;20706;-75
2021/07/29 01:56:09;;;;;;;7.00;3.00;;;15.80;99.90;;;;;;4998944;28;20259;-75
2021/07/29 01:58:34;;;;;;;7.07;3.30;;;16.10;99.90;;;;;;4998148;28;20262;-75
2021/07/29 02:01:00;;;;;;;5.60;3.10;;;15.80;99.90;;;;;;4981592;28;20267;-75
2021/07/29 02:03:25;;;;;;;6.93;3.10;;;16.00;99.90;;;;;;4998023;28;20200;-75
2021/07/29 02:05:51;;;;;;;5.77;3.40;;;15.90;99.90;;;;;;5014348;28;20172;-75
2021/07/29 02:08:16;;;;;;;5.17;2.80;;;15.80;99.90;;;;;;4998031;28;20207;-75
2021/07/29 02:10:42;;;;;;;6.83;2.93;;;15.80;99.90;;;;;;4997696;28;20183;-75
2021/07/29 02:13:07;;;;;;;4.57;3.13;;;16.00;99.90;;;;;;5015099;28;20200;-75
2021/07/29 02:15:33;;;;;;;4.67;3.00;;;15.80;99.90;;;;;;4981445;28;20182;-75
2021/07/29 02:18:00;;;;;;;5.20;2.63;;;15.80;99.90;;;;;;4997773;28;20979;-75
2021/07/29 02:20:26;;;;;;;4.03;3.17;;;16.10;99.90;;;;;;4997503;28;20176;-75
2021/07/29 02:22:52;;;;;;;5.70;3.03;;;15.90;99.90;;;;;;4997876;28;20269;-75
2021/07/29 02:25:18;;;;;;;5.87;3.10;;;15.90;99.90;;;;;;4997747;28;20179;-75
2021/07/29 02:27:43;;;;;;;5.47;2.83;;;15.80;99.90;;;;;;4997611;28;20230;-75
2021/07/29 02:30:09;;;;;;;4.00;2.73;;;16.00;99.90;;;;;;4997400;28;20184;-75
2021/07/29 02:32:35;;;;;;;8.07;3.33;;;16.00;99.90;;;;;;4997694;28;20652;-75
2021/07/29 02:35:01;;;;;;;3.73;2.77;;;16.10;99.90;;;;;;4997733;28;20182;-75
2021/07/29 02:37:27;;;;;;;6.10;2.80;;;15.70;99.90;;;;;;5013843;28;20553;-75
2021/07/29 02:39:52;;;;;;;6.00;3.07;;;15.80;99.90;;;;;;5013522;28;20180;-75
2021/07/29 02:42:18;;;;;;;5.57;3.17;;;17.00;99.90;;;;;;4997231;28;20606;-75
2021/07/29 02:44:43;;;;;;;6.33;2.90;;;15.80;99.90;;;;;;4997094;28;20698;-75
2021/07/29 02:47:09;;;;;;;3.87;2.60;;;16.00;99.90;;;;;;5013409;28;20616;-75
2021/07/29 02:49:35;;;;;;;6.10;2.60;;;15.70;99.90;;;;;;5013456;28;20168;-75
2021/07/29 02:52:00;;;;;;;3.93;2.80;;;15.90;99.90;;;;;;4997398;28;20176;-75
2021/07/29 02:54:26;;;;;;;5.03;3.00;;;15.90;99.90;;;;;;4996238;28;20269;-75
2021/07/29 02:56:51;;;;;;;5.93;3.20;;;16.00;99.90;;;;;;5014732;28;20183;-75
2021/07/29 02:59:17;;;;;;;5.20;2.73;;;15.90;99.90;;;;;;5013143;28;20168;-75
2021/07/29 03:01:43;;;;;;;5.83;3.03;;;15.90;99.90;;;;;;5013452;28;20186;-75
2021/07/29 03:04:08;;;;;;;5.47;2.77;;;15.80;99.90;;;;;;5013527;28;20191;-75
2021/07/29 03:06:34;;;;;;;4.33;2.87;;;16.00;99.90;;;;;;4981083;28;20179;-75
2021/07/29 03:09:00;;;;;;;4.63;2.57;;;15.80;99.90;;;;;;4996985;28;20199;-75
2021/07/29 03:11:26;;;;;;;5.00;3.00;;;15.70;99.90;;;;;;4980295;28;20179;-75
2021/07/29 03:13:51;;;;;;;5.83;2.70;;;15.70;99.90;;;;;;5012988;28;20667;-75
2021/07/29 03:16:17;;;;;;;6.90;2.90;;;15.70;99.90;;;;;;5012919;28;20175;-75
2021/07/29 03:18:42;;;;;;;3.97;2.73;;;15.70;99.90;;;;;;4996324;28;20175;-75
2021/07/29 03:21:08;;;;;;;6.17;2.77;;;15.70;99.90;;;;;;5011661;28;20672;-75
2021/07/29 03:23:37;;;;;;;5.70;2.80;;;15.90;99.90;;;;;;5012298;28;20205;-75
2021/07/29 03:26:03;;;;;;;4.93;2.60;;;15.80;99.90;;;;;;5012240;28;20199;-75
2021/07/29 03:28:28;;;;;;;6.43;2.90;;;15.60;99.90;;;;;;5012258;28;20757;-75
2021/07/29 03:30:54;;;;;;;5.33;2.73;;;15.80;99.90;;;;;;5011470;28;20199;-75
2021/07/29 03:33:19;;;;;;;8.37;3.00;;;15.80;99.90;;;;;;5012875;28;20274;-75
2021/07/29 03:35:45;;;;;;;5.33;2.27;;;15.80;99.90;;;;;;5014009;28;20199;-75
2021/07/29 03:38:11;;;;;;;4.30;2.60;;;15.70;99.90;;;;;;5000688;28;20250;-75
2021/07/29 03:40:36;;;;;;;6.17;2.70;;;16.10;99.90;;;;;;4976525;28;20192;-75
2021/07/29 03:43:02;;;;;;;4.77;2.40;;;15.80;99.90;;;;;;4992899;28;20561;-75
2021/07/29 03:45:29;;;;;;;5.70;2.60;;;15.40;99.90;;;;;;4976782;28;20215;-75
2021/07/29 03:47:55;;;;;;;4.97;2.67;;;15.70;99.90;;;;;;4976461;28;20204;-75
2021/07/29 03:50:20;;;;;;;4.47;2.57;;;15.60;99.90;;;;;;4976127;28;20191;-75
2021/07/29 03:52:46;;;;;;;4.60;2.40;;;15.40;99.90;;;;;;4992546;28;20263;-75
2021/07/29 03:55:12;;;;;;;7.23;2.70;;;15.40;99.90;;;;;;4992383;28;20242;-75
2021/07/29 03:57:37;;;;;;;5.27;2.80;;;15.50;99.90;;;;;;4974883;28;20648;-75
2021/07/29 04:00:04;;;;;;;5.97;2.83;;;15.60;99.90;;;;;;4991374;28;20180;-75
2021/07/29 04:02:30;;;;;;;5.47;2.87;;;15.60;99.90;;;;;;4991585;28;20184;-75
2021/07/29 04:04:55;;;;;;;5.77;2.83;;;15.40;99.90;;;;;;4992416;28;20199;-75
2021/07/29 04:07:21;;;;;;;4.67;3.10;;;15.50;99.90;;;;;;4993769;28;20682;-75
2021/07/29 04:09:46;;;;;;;6.57;2.70;;;15.30;99.90;;;;;;5013217;28;20670;-75
2021/07/29 04:12:12;;;;;;;5.50;2.93;;;15.30;99.90;;;;;;4994428;28;20582;-75
2021/07/29 04:14:38;;;;;;;5.83;2.70;;;15.40;99.90;;;;;;4993798;28;20695;-75
2021/07/29 04:17:04;;;;;;;5.13;2.80;;;15.50;99.90;;;;;;4992222;28;20267;-75
2021/07/29 04:19:33;;;;;;;6.37;3.00;;;15.30;99.90;;;;;;4995463;28;20270;-75
2021/07/29 04:21:59;;;;;;;6.90;2.93;;;15.40;99.90;;;;;;5012034;28;20176;-75
2021/07/29 04:24:26;;;;;;;5.00;2.70;;;15.40;99.90;;;;;;5012689;28;20213;-73
2021/07/29 04:26:52;;;;;;;5.30;3.20;;;15.30;99.90;;;;;;5012921;28;20171;-77
2021/07/29 04:29:17;;;;;;;5.50;2.90;;;15.20;99.90;;;;;;4997222;28;20179;-77
2021/07/29 04:31:43;;;;;;;6.37;3.40;;;15.30;99.90;;;;;;4979598;28;20187;-77
2021/07/29 04:34:09;;;;;;;4.67;2.90;;;15.40;99.90;;;;;;4977377;28;20196;-77
2021/07/29 04:36:40;;;;;;;5.13;2.70;;;15.60;99.90;;;;;;4977484;28;20673;-77
2021/07/29 04:39:07;;;;;;;5.50;2.83;;;15.40;99.90;;;;;;4993167;28;20179;-76
2021/07/29 04:41:33;;;;;;;6.93;3.10;;;15.60;99.90;;;;;;4992980;28;20642;-76
2021/07/29 04:43:59;;;;;;;6.17;2.87;;;15.50;99.90;;;;;;4976507;28;20196;-77
2021/07/29 04:46:25;;;;;;;6.10;2.90;;;15.60;99.90;;;;;;4976701;28;20675;-77
2021/07/29 04:48:51;;;;;;;5.43;3.10;;;15.70;99.90;;;;;;4976825;28;20215;-76
2021/07/29 04:51:16;;;;;;;6.23;3.30;;;15.70;99.90;;;;;;4976718;28;20183;-77
2021/07/29 04:53:42;;;;;;;7.10;3.10;;;15.50;99.90;;;;;;4992724;28;20208;-78
2021/07/29 04:56:07;;;;;;;5.00;2.40;;;15.60;99.90;;;;;;4976556;28;20255;-76
2021/07/29 04:58:33;;;;;;;7.07;2.80;;;15.80;99.90;;;;;;4976182;28;20211;-77
2021/07/29 05:01:04;;;;;;;7.67;3.20;;;15.80;99.90;;;;;;4992330;28;20192;-77
2021/07/29 05:03:30;;;;;;;7.27;3.30;;;16.30;99.90;;;;;;4975934;28;20203;-78
2021/07/29 05:05:56;;;;;;;11.77;3.20;;;16.00;99.90;;;;;;5006579;28;20269;-74
2021/07/29 05:08:21;;;;;;;5.00;2.67;;;15.60;99.90;;;;;;5013335;28;20735;-76
2021/07/29 05:10:47;;;;;;;4.23;2.60;;;15.70;99.90;;;;;;5013495;28;20226;-76
2021/07/29 05:13:12;;;;;;;5.23;3.10;;;15.70;99.90;;;;;;5013939;28;20246;-76
2021/07/29 05:15:38;;;;;;;8.17;3.33;;;15.60;99.90;;;;;;4997267;28;20175;-76
2021/07/29 05:18:03;;;;;;;8.10;3.07;;;15.80;99.90;;;;;;4997719;28;20837;-76
2021/07/29 05:20:29;;;;;;;9.17;2.93;;;16.20;99.90;;;;;;5001773;28;20218;-76
2021/07/29 05:22:55;;;;;;;7.17;3.10;;;15.90;99.90;;;;;;5017629;28;20290;-75
2021/07/29 05:25:23;;;;;;;8.07;2.90;;;16.20;99.90;;;;;;5001104;28;20718;-76
2021/07/29 05:27:50;;;;;;;7.37;2.83;;;16.30;99.90;;;;;;5001682;28;20713;-79
2021/07/29 05:30:15;;;;;;;5.20;2.87;;;16.10;99.90;;;;;;5017812;28;20171;-75
2021/07/29 05:32:41;;;;;;;5.80;3.00;;;16.20;99.90;;;;;;4985119;28;20199;-76
2021/07/29 05:35:07;;;;;;;7.23;3.27;;;16.20;99.90;;;;;;4984752;28;20191;-75
2021/07/29 05:37:33;;;;;;;4.03;2.70;;;16.30;99.90;;;;;;5001233;28;20202;-76
2021/07/29 05:39:58;;;;;;;5.67;2.97;;;16.40;99.90;;;;;;4981803;28;20294;-76
2021/07/29 05:42:24;;;;;;;8.97;3.03;;;16.60;99.90;;;;;;4982445;28;20215;-76
2021/07/29 05:44:50;;;;;;;5.03;2.87;;;16.70;99.90;;;;;;5017653;28;20675;-76
2021/07/29 05:47:16;;;;;;;6.73;2.60;;;16.80;99.90;;;;;;4998765;28;20215;-78
2021/07/29 05:49:41;;;;;;;7.77;2.80;;;16.60;99.90;;;;;;5013393;28;20538;-78
2021/07/29 05:52:07;;;;;;;11.57;3.17;;;16.50;99.90;;;;;;4997828;28;20184;-78
2021/07/29 05:54:32;;;;;;;5.47;2.67;;;16.80;99.90;;;;;;5015242;28;20211;-77
2021/07/29 05:56:58;;;;;;;6.50;2.70;;;16.80;99.90;;;;;;5015025;28;20255;-78
2021/07/29 05:59:23;;;;;;;4.67;2.47;;;17.40;99.90;;;;;;4998312;28;20179;-78
2021/07/29 06:01:49;;;;;;;4.03;2.27;;;18.20;99.90;;;;;;4998183;28;20529;-76
2021/07/29 06:04:14;;;;;;;5.90;2.43;;;18.50;99.90;;;;;;4997427;28;20230;-76
2021/07/29 06:06:40;;;;;;;4.07;2.13;;;18.60;99.90;;;;;;5013805;28;20210;-76
2021/07/29 06:09:06;;;;;;;4.93;2.73;;;18.20;99.90;;;;;;5013446;28;20211;-77
2021/07/29 06:11:32;;;;;;;6.37;2.40;;;18.10;99.90;;;;;;4997330;28;20172;-77
2021/07/29 06:13:59;;;;;;;5.20;2.40;;;17.70;99.90;;;;;;4991669;28;20192;-76
2021/07/29 06:16:25;;;;;;;10.60;2.90;;;17.50;99.90;;;;;;5017542;28;20244;-76
2021/07/29 06:19:32;;;;;;;4.57;2.50;;;17.20;99.90;;;;;;5013510;28;20733;-77
2021/07/29 06:21:39;;;;;;;7.40;2.57;;;17.40;99.90;;;;;;4993102;28;20195;-77
2021/07/29 06:24:04;;;;;;;9.07;2.80;;;17.30;99.90;;;;;;4997673;28;20204;-77
2021/07/29 06:26:30;;;;;;;7.67;2.97;;;17.40;99.90;;;;;;5013849;28;20274;-77
2021/07/29 06:28:55;;;;;;;8.73;2.90;;;17.40;99.90;;;;;;5013396;28;20212;-76
2021/07/29 06:31:21;;;;;;;9.27;2.70;;;17.50;99.90;;;;;;4997496;28;20241;-76
2021/07/29 06:33:46;;;;;;;10.40;3.07;;;17.40;99.90;;;;;;4997314;28;20204;-76
2021/07/29 06:36:12;;;;;;;8.07;2.60;;;17.40;99.90;;;;;;4997257;28;20176;-77
2021/07/29 06:38:38;;;;;;;9.90;3.20;;;17.50;99.90;;;;;;4980982;28;20180;-77
2021/07/29 06:41:05;;;;;;;10.17;2.57;;;17.70;99.90;;;;;;5013707;28;20211;-77
2021/07/29 06:43:30;;;;;;;10.47;2.87;;;18.00;99.90;;;;;;5000042;28;20203;-80
2021/07/29 06:45:56;;;;;;;6.37;2.43;;;17.70;99.90;;;;;;4984420;28;20194;-76
2021/07/29 06:48:21;;;;;;;8.83;2.70;;;17.60;99.90;;;;;;4982512;28;20212;-77
2021/07/29 06:50:47;;;;;;;8.70;2.43;;;17.80;99.90;;;;;;5013152;28;20270;-76
2021/07/29 06:53:12;;;;;;;8.63;2.37;;;17.70;99.90;;;;;;5013272;28;20242;-77
2021/07/29 06:55:38;;;;;;;7.40;2.40;;;18.00;99.90;;;;;;4997108;28;20175;-77
2021/07/29 06:58:04;;;;;;;9.17;2.20;;;18.00;99.90;;;;;;4980913;28;20187;-77
2021/07/29 07:00:29;;;;;;;7.40;2.03;;;18.30;99.90;;;;;;4997552;28;20266;-78
2021/07/29 07:02:55;;;;;;;8.50;2.30;;;18.00;99.90;;;;;;5014702;28;20206;-75
2021/07/29 07:05:21;;;;;;;4.87;1.83;;;18.10;99.90;;;;;;4984629;28;20677;-77
2021/07/29 07:07:46;;;;;;;5.97;2.13;;;18.10;99.90;;;;;;4989193;28;20214;-81
2021/07/29 07:10:12;;;;;;;10.43;2.17;;;18.30;99.90;;;;;;5014308;28;20183;-79
2021/07/29 07:12:37;;;;;;;5.90;2.20;;;18.30;99.90;;;;;;5017213;28;20267;-79
2021/07/29 07:15:03;;;;;;;7.03;2.00;;;18.40;99.90;;;;;;5013999;28;20176;-78
2021/07/29 07:17:29;;;;;;;7.03;2.10;;;18.60;99.90;;;;;;5013437;28;20386;-78
2021/07/29 07:19:58;;;;;;;4.63;1.87;;;18.40;99.90;;;;;;5013436;28;20211;-78
2021/07/29 07:22:24;;;;;;;7.00;2.33;;;18.60;99.90;;;;;;5014088;28;20210;-79
2021/07/29 07:24:50;;;;;;;5.60;2.10;;;19.00;99.90;;;;;;5015134;28;20234;-78
2021/07/29 07:27:15;;;;;;;8.40;2.43;;;19.30;99.90;;;;;;4997049;28;20216;-76
2021/07/29 07:29:41;;;;;;;6.70;2.00;;;19.60;99.90;;;;;;4993591;28;20635;-78
2021/07/29 07:32:06;;;;;;;7.47;1.90;;;19.50;99.90;;;;;;4994099;28;20194;-78
2021/07/29 07:34:32;;;;;;;6.80;1.80;;;19.40;99.90;;;;;;4990453;28;20214;-78
2021/07/29 07:36:58;;;;;;;6.60;1.90;;;19.60;99.90;;;;;;4974804;28;20631;-79
2021/07/29 07:39:24;;;;;;;3.97;1.70;;;19.50;99.90;;;;;;5002894;28;20186;-78
2021/07/29 07:41:49;;;;;;;6.70;2.10;;;19.20;99.90;;;;;;4992072;28;20176;-78
2021/07/29 07:44:15;;;;;;;6.13;1.80;;;19.20;99.90;;;;;;4986600;28;20413;-79
2021/07/29 07:46:40;;;;;;;6.83;2.00;;;19.10;99.90;;;;;;4997248;28;20183;-78
2021/07/29 07:49:06;;;;;;;5.43;1.63;;;19.20;99.90;;;;;;4997197;28;20199;-76
2021/07/29 07:51:31;;;;;;;6.20;1.83;;;19.50;99.90;;;;;;5014117;28;20203;-78
2021/07/29 07:53:57;;;;;;;5.40;1.63;;;20.30;99.90;;;;;;4996854;28;20214;-77
2021/07/29 07:56:22;;;;;;;6.20;2.00;;;20.50;99.90;;;;;;4985607;28;20212;-78
2021/07/29 07:58:48;;;;;;;6.60;2.00;;;20.50;99.90;;;;;;4997673;28;20176;-77
2021/07/29 08:01:15;;;;;;;6.37;1.90;;;20.20;99.90;;;;;;5002090;28;20214;-79
2021/07/29 08:03:40;;;;;;;8.03;1.90;;;20.00;99.90;;;;;;5001087;28;20211;-77
2021/07/29 08:06:06;;;;;;;8.90;2.13;;;19.80;99.90;;;;;;5015942;28;20178;-79
2021/07/29 08:08:32;;;;;;;5.73;2.10;;;19.50;99.90;;;;;;5003397;28;20831;-80
2021/07/29 08:10:57;;;;;;;7.17;2.07;;;19.40;99.90;;;;;;5027055;28;20651;-81
2021/07/29 08:13:23;;;;;;;5.27;1.80;;;19.40;99.90;;;;;;4994389;28;20229;-79
2021/07/29 08:15:48;;;;;;;5.60;1.87;;;19.60;99.90;;;;;;5005652;28;20186;-80
2021/07/29 08:18:15;;;;;;;4.63;1.90;;;20.10;99.90;;;;;;4993382;28;20191;-79
2021/07/29 08:20:44;;;;;;;8.40;1.70;;;20.40;99.90;;;;;;5021338;28;20176;-80
2021/07/29 08:23:09;;;;;;;5.47;1.40;;;20.70;99.90;;;;;;5016523;28;20627;-80
2021/07/29 08:25:35;;;;;;;3.17;1.60;;;20.80;99.90;;;;;;5001961;28;20199;-79
2021/07/29 08:28:01;;;;;;;6.20;1.57;;;20.70;99.90;;;;;;4984834;28;20222;-79
2021/07/29 08:30:28;;;;;;;4.50;1.50;;;20.90;99.90;;;;;;5006421;28;20222;-82
2021/07/29 08:32:53;;;;;;;3.90;1.20;;;21.30;99.90;;;;;;5020435;28;20199;-78
2021/07/29 08:35:19;;;;;;;3.77;1.40;;;20.70;99.90;;;;;;5019957;28;20181;-77
2021/07/29 08:37:48;;;;;;;6.27;1.70;;;20.50;99.90;;;;;;5019632;28;20278;-76
2021/07/29 08:40:17;;;;;;;4.23;1.30;;;19.90;99.90;;;;;;5005953;28;20670;-76
2021/07/29 08:42:44;;;;;;;6.83;1.43;;;19.80;99.90;;;;;;5012698;28;20810;-77
2021/07/29 08:45:10;;;;;;;4.80;1.60;;;19.60;99.90;;;;;;5000362;28;20717;-79
2021/07/29 08:47:35;;;;;;;4.47;1.33;;;19.30;99.90;;;;;;5014953;28;20211;-74
2021/07/29 08:50:05;;;;;;;9.07;1.40;;;19.40;99.90;;;;;;5000227;28;20656;-76
2021/07/29 08:52:31;;;;;;;5.47;1.60;;;19.60;99.90;;;;;;5016347;28;20218;-77
2021/07/29 08:54:57;;;;;;;5.87;1.50;;;19.90;99.90;;;;;;5037586;28;20178;-76
2021/07/29 08:57:26;;;;;;;5.20;1.27;;;20.00;99.90;;;;;;5031357;28;20191;-77
2021/07/29 08:59:52;;;;;;;4.93;1.20;;;20.20;99.90;;;;;;4997299;28;20180;-77
2021/07/29 09:02:25;;;;;;;6.67;1.70;;;20.00;99.90;;;;;;5010635;28;20182;-77
2021/07/29 09:05:12;;;;;;;7.30;1.63;;;19.70;99.90;;;;;;5011107;28;20266;-78
2021/07/29 09:07:38;;;;;;;5.00;1.50;;;19.80;99.90;;;;;;5011035;28;20227;-77
2021/07/29 09:10:18;;;;;;;8.60;1.80;;;19.90;99.90;;;;;;4994651;28;20179;-77
2021/07/29 09:12:43;;;;;;;7.90;1.80;;;20.10;99.90;;;;;;5012301;28;20194;-78
2021/07/29 09:15:21;;;;;;;3.67;1.50;;;20.50;99.90;;;;;;5012406;28;20175;-78
2021/07/29 09:17:47;;;;;;;4.23;1.50;;;20.60;99.90;;;;;;4994748;28;20218;-78
2021/07/29 09:20:19;;;;;;;4.83;1.43;;;20.80;99.90;;;;;;5011063;28;20180;-78
2021/07/29 09:22:47;;;;;;;4.27;1.37;;;20.80;99.90;;;;;;5010924;28;20200;-77
2021/07/29 09:25:13;;;;;;;4.37;1.70;;;20.90;99.90;;;;;;5010759;28;20203;-78
2021/07/29 09:27:38;;;;;;;5.00;1.77;;;21.00;99.90;;;;;;4994473;28;20234;-77
2021/07/29 09:30:19;;;;;;;4.87;1.50;;;20.90;99.90;;;;;;5012155;28;20187;-77
2021/07/29 09:33:05;;;;;;;4.43;1.70;;;20.80;99.90;;;;;;5012260;28;20197;-77
2021/07/29 09:35:40;;;;;;;4.60;1.43;;;20.80;99.90;;;;;;5011941;28;20710;-78
2021/07/29 09:38:07;;;;;;;4.13;1.70;;;20.60;99.90;;;;;;5010651;28;20592;-78
2021/07/29 09:40:43;;;;;;;4.00;1.70;;;20.70;99.90;;;;;;5011936;28;20180;-77
2021/07/29 09:43:11;;;;;;;7.07;1.70;;;20.70;99.90;;;;;;5010977;28;20291;-78
2021/07/29 09:45:37;;;;;;;5.93;1.87;;;20.40;99.90;;;;;;5010876;28;20176;-78
2021/07/29 09:48:07;;;;;;;6.00;1.73;;;20.30;99.90;;;;;;5010851;28;20659;-78
2021/07/29 09:50:33;;;;;;;6.30;1.70;;;20.20;99.90;;;;;;5010520;28;20179;-78
2021/07/29 09:52:59;;;;;;;7.00;1.73;;;19.90;99.90;;;;;;4994270;28;20212;-77
2021/07/29 09:55:25;;;;;;;4.30;1.77;;;19.90;99.90;;;;;;5011043;28;20250;-78
2021/07/29 09:57:51;;;;;;;8.03;1.70;;;20.00;99.90;;;;;;4994744;28;20206;-78
2021/07/29 10:00:16;;;;;;;5.40;1.80;;;19.90;99.90;;;;;;5010626;28;20668;-78
2021/07/29 10:02:42;;;;;;;5.90;1.87;;;20.00;99.90;;;;;;4994250;28;20619;-77
2021/07/29 10:05:08;;;;;;;4.70;1.80;;;20.20;99.90;;;;;;5012601;28;20175;-78
2021/07/29 10:07:38;;;;;;;6.43;1.90;;;20.00;99.90;;;;;;5014636;28;20219;-77
2021/07/29 10:10:04;;;;;;;7.77;2.03;;;20.20;99.90;;;;;;5014593;28;20176;-78
2021/07/29 10:12:33;;;;;;;6.20;1.90;;;20.10;99.90;;;;;;5014506;28;20557;-77
2021/07/29 10:14:59;;;;;;;5.23;1.90;;;19.90;99.90;;;;;;5014426;28;20171;-77
2021/07/29 10:17:34;;;;;;;4.10;1.67;;;19.80;99.90;;;;;;5018513;28;20231;-78
2021/07/29 10:20:16;;;;;;;5.50;1.70;;;19.70;99.90;;;;;;5035135;28;20182;-78
2021/07/29 10:22:42;;;;;;;7.97;2.07;;;20.00;99.90;;;;;;5035137;28;20206;-77
2021/07/29 10:25:08;;;;;;;7.80;1.97;;;19.70;99.90;;;;;;5034729;28;20266;-77
2021/07/29 10:27:33;;;;;;;7.13;1.90;;;19.70;99.90;;;;;;5001196;28;20325;-76
2021/07/29 10:30:20;;;;;;;6.40;1.73;;;19.80;99.90;;;;;;5033961;28;20262;-78
2021/07/29 10:32:47;;;;;;;9.10;2.10;;;19.70;99.90;;;;;;5033940;28;20679;-79
2021/07/29 10:35:31;;;;;;;9.50;2.13;;;19.80;99.90;;;;;;5035010;28;20171;-78
2021/07/29 10:37:57;;;;;;;7.80;1.83;;;20.20;99.90;;;;;;5020458;28;20185;-79
2021/07/29 10:40:33;;;;;;;7.30;2.00;;;19.90;99.90;;;;;;5005032;28;20186;-79
2021/07/29 10:43:23;;;;;;;5.17;2.00;;;20.10;99.90;;;;;;5010317;28;20206;-77
2021/07/29 10:45:49;;;;;;;7.00;1.97;;;20.30;99.90;;;;;;5011682;28;20554;-77
2021/07/29 10:48:47;;;;;;;8.30;2.20;;;20.60;99.90;;;;;;4997205;28;20195;-78
2021/07/29 10:51:19;;;;;;;3.83;1.70;;;21.00;99.90;;;;;;5012823;28;20172;-78
2021/07/29 10:53:46;;;;;;;7.80;1.77;;;21.10;99.90;;;;;;5009545;28;20347;-79
2021/07/29 10:56:21;;;;;;;7.50;2.07;;;20.80;99.90;;;;;;5001834;28;20179;-79
2021/07/29 10:58:48;;;;;;;5.13;2.07;;;20.80;99.90;;;;;;5001143;28;20259;-79
2021/07/29 11:01:15;;;;;;;5.23;1.87;;;20.70;99.90;;;;;;4984242;28;20236;-79
2021/07/29 11:03:51;;;;;;;4.20;1.57;;;20.40;99.90;;;;;;5001562;28;20223;-78
2021/07/29 11:07:06;;;;;;;7.57;2.10;;;20.40;99.90;;;;;;4986547;28;20253;-78
2021/07/29 11:09:35;;;;;;;6.83;1.80;;;20.80;99.90;;;;;;4998789;28;20301;-78
2021/07/29 11:12:01;;;;;;;5.67;1.80;;;20.80;99.90;;;;;;5001273;28;20182;-79
2021/07/29 11:14:33;;;;;;;7.20;1.90;;;20.70;99.90;;;;;;4984613;28;20203;-79
2021/07/29 11:17:03;;;;;;;5.80;1.90;;;20.60;99.90;;;;;;5000090;28;20188;-79
2021/07/29 11:19:28;;;;;;;5.77;1.77;;;20.80;99.90;;;;;;5001607;28;20184;-79
2021/07/29 11:22:04;;;;;;;6.70;1.83;;;20.60;99.90;;;;;;4984211;28;20203;-79
2021/07/29 11:24:29;;;;;;;6.10;1.83;;;20.50;99.90;;;;;;5000674;28;20202;-77
2021/07/29 11:26:55;;;;;;;6.57;1.87;;;20.60;99.90;;;;;;4998357;28;20185;-79
2021/07/29 11:29:21;;;;;;;6.53;2.07;;;20.90;99.90;;;;;;5001212;28;20218;-78
2021/07/29 11:31:49;;;;;;;5.83;1.90;;;20.90;99.90;;;;;;5010092;28;20266;-79
2021/07/29 11:34:15;;;;;;;3.53;1.63;;;21.10;99.90;;;;;;5017367;28;20789;-80
2021/07/29 11:36:40;;;;;;;5.73;1.63;;;21.10;99.90;;;;;;5000948;28;20207;-79
2021/07/29 11:39:07;;;;;;;6.40;1.80;;;21.20;99.90;;;;;;5004589;28;20191;-78
2021/07/29 11:41:51;;;;;;;6.37;1.57;;;21.20;99.90;;;;;;5018785;28;20184;-78
2021/07/29 11:44:17;;;;;;;5.23;1.60;;;21.10;99.90;;;;;;5017912;28;20199;-79
2021/07/29 11:46:58;;;;;;;4.63;1.63;;;21.20;99.90;;;;;;5017586;28;20242;-82
2021/07/29 11:49:24;;;;;;;5.23;1.70;;;21.20;99.90;;;;;;5016988;28;20205;-78
2021/07/29 11:52:06;;;;;;;6.70;1.90;;;21.30;99.90;;;;;;5017415;28;20182;-77
2021/07/29 11:54:32;;;;;;;5.97;1.43;;;21.30;99.90;;;;;;5000444;28;20239;-77
2021/07/29 11:56:58;;;;;;;4.83;1.43;;;21.40;99.90;;;;;;5000656;28;20179;-79
2021/07/29 11:59:24;;;;;;;4.93;1.60;;;21.40;99.90;;;;;;5017434;28;20184;-77
2021/07/29 12:01:50;;;;;;;5.17;1.63;;;21.50;99.90;;;;;;5017815;28;20225;-77
2021/07/29 12:04:16;;;;;;;5.13;1.60;;;21.70;99.90;;;;;;5000133;28;20213;-80
2021/07/29 12:06:41;;;;;;;6.40;1.70;;;21.80;99.90;;;;;;5000783;28;20194;-78
2021/07/29 12:09:07;;;;;;;5.97;1.60;;;21.40;99.90;;;;;;4999193;28;20753;-78
2021/07/29 12:11:33;;;;;;;7.70;2.00;;;21.90;99.90;;;;;;4998935;28;20559;-76
2021/07/29 12:13:58;;;;;;;5.53;1.60;;;21.80;99.90;;;;;;5013613;28;20675;-76
2021/07/29 12:16:43;;;;;;;2.93;1.33;;;21.80;99.90;;;;;;5014037;28;20229;-76
2021/07/29 12:19:08;;;;;;;6.50;1.70;;;21.70;99.90;;;;;;5015294;28;20197;-77
2021/07/29 12:21:34;;;;;;;5.90;1.60;;;21.70;99.90;;;;;;4998981;28;20215;-77
2021/07/29 12:23:59;;;;;;;6.67;1.60;;;21.80;99.90;;;;;;5016032;28;20259;-77
2021/07/29 12:26:25;;;;;;;5.17;1.53;;;21.80;99.90;;;;;;5000558;28;20255;-78
2021/07/29 12:28:50;;;;;;;7.77;1.70;;;21.40;99.90;;;;;;5000090;28;20556;-78
2021/07/29 12:31:17;;;;;;;5.50;1.23;;;21.30;99.90;;;;;;5001118;28;20172;-79
2021/07/29 12:33:57;;;;;;;4.77;1.70;;;21.10;99.90;;;;;;5015979;28;20188;-79
2021/07/29 12:36:23;;;;;;;4.37;1.53;;;20.90;99.90;;;;;;5016847;28;20241;-77
2021/07/29 12:38:59;;;;;;;5.77;1.60;;;20.80;99.90;;;;;;4982033;28;20176;-78
2021/07/29 12:41:38;;;;;;;3.53;1.50;;;20.80;99.90;;;;;;5014249;28;20186;-78
2021/07/29 12:44:19;;;;;;;5.50;1.63;;;21.20;99.90;;;;;;5016695;28;20225;-78
2021/07/29 12:46:45;;;;;;;4.93;1.70;;;21.30;99.90;;;;;;5017198;28;20190;-78
2021/07/29 12:49:12;;;;;;;5.97;1.73;;;21.80;99.90;;;;;;5000188;28;20246;-77